AirNav   Air Wisconsin Up To $57,000 Bonus
 
 575 users online  

6WN6 Fountain Prairie Airport
Columbus, Wisconsin, USA

GOING TO COLUMBUS?


FAA INFORMATION EFFECTIVE 26 JANUARY 2023

Location

FAA Identifier: 6WN6
Lat/Long: 43-22-47.9630N 089-00-38.3950W
43-22.799383N 089-00.639917W
43.3799897,-89.0106653
(estimated)
Elevation: 880 ft. / 268 m (estimated)
From city: 3 miles N of COLUMBUS, WI
Time zone: UTC -6 (UTC -5 during Daylight Saving Time)
Zip code: 53932

Airport Operations

Airport use: Private use. Permission required prior to landing
Activation date: 07/2004
Control tower: no
ARTCC: CHICAGO CENTER
FSS: GREEN BAY FLIGHT SERVICE STATION
Attendance: UNATNDD
Wind indicator: yes
Segmented circle: no

Airport Communications

WX AWOS-3 at UNU (14 nm E): 120.825 (920-386-5682)
WX AWOS-3 at RYV (18 nm SE): 119.975 (920-261-0734)

Nearby radio navigation aids

VOR radial/distance  VOR name  Freq  Var
MSNr043/20.1MADISON VORTAC108.6003E
DLLr104/34.4DELLS VORTAC117.0003E
BAEr294/35.5BADGER VOR/DME116.4002E
BJBr267/(38.7)WEST BEND VOR109.8001W

 
NDB name  Hdg/Dist  Freq  Var  ID
ROCK RIVER316/17.637101WRYV .-. -.-- ...-

Airport Services

Runway Information

Runway 5/23

Dimensions: 2800 x 75 ft. / 853 x 23 m
Surface: turf
RUNWAY 5  RUNWAY 23
Traffic pattern: leftleft

Airport Ownership and Management from official FAA records

Ownership: Privately-owned
Owner: RONALD LEWKE
N5141 STATE ROAD 73
COLUMBUS, WI 53925
Phone 920-296-9000
Manager: RONALD LEWKE
7777 MARSHALL ROAD
COLUMBUS, WI 53925
Phone 920-623-3616

Additional Remarks

FOR CD CTC CHICAGO ARTCC AT 630-906-8921.

Instrument Procedures

There are no published instrument procedures at 6WN6.

Some nearby airports with instrument procedures:

KUNU - Dodge County Airport (14 nm E)
KRYV - Watertown Municipal Airport (18 nm SE)
87Y - Blackhawk Airfield (18 nm SW)
KMSN - Dane County Regional Airport-Truax Field (20 nm SW)
C47 - Portage Municipal Airport (23 nm NW)
 
Loc | Ops | Rwys | IFR | FBO | Links
Com | Nav | Svcs | Stats | Notes
Area around 6WN6 (Fountain Prairie Airport)
 
Road maps at: MapQuest Bing Google
 
Aerial photo
No photo
 
Sectional chart

 
Airport distance calculator
Flying to Fountain Prairie Airport? Find the distance to fly.

From to 6WN6

Sunrise and sunset
Times for 09-Feb-2023
 Local
(UTC-6)
 Zulu
(UTC)
Morning civil twilight06:3412:34
Sunrise07:0313:03
Sunset17:1723:17
Evening civil twilight17:4723:47

Current date and time
Zulu (UTC)  09-Feb-2023 10:47:00
Local (UTC-6)  09-Feb-2023 04:47:00
 
METAR
KUNU 
14nm E 
091035Z AUTO 04006KT 5SM -SN SCT070 OVC080 00/00 A2979 RMK AO2 T00031001
KRYV 
18nm SE 
091035Z AUTO 06008KT 5SM BR BKN055 OVC070 01/00 A2976 RMK AO2 T00100003
KMSN 
21nm SW 
090953Z AUTO 05008KT 7SM UP OVC070 01/M02 A2979 RMK AO2 UPB25 PRESFR SLP096 P0000 T00111022
TAF
KMSN 
21nm SW 
090928Z 0909/1006 04006KT P6SM -RASN OVC070 FM091100 04011KT 6SM -RASN BR OVC060 FM091500 03017G28KT 3/4SM -SN BR OVC009 FM092100 33016G28KT 1 1/2SM -SN BR OVC011 FM092300 31013G24KT P6SM VCSH OVC012
NOTAMs
Click for the latest NOTAMs
NOTAMs are issued by the DoD/FAA and will open in a separate window not controlled by AirNav.

 

 
 

Would you like to see your business listed on this page?

 If your business provides an interesting product or service to pilots, flight crews, aircraft, or users of the Fountain Prairie Airport, you should consider listing it here.  To start the listing process, click on the button below
 
Add a business
 

Other Pages about Fountain Prairie Airport

Update a link
 
Copyright © AirNav, LLC. All rights reserved. Privacy Policy  Contact